createdAt,value
2018-07-16T00:00:10.350Z,19.15
2018-07-16T00:01:10.410Z,19.01
2018-07-16T00:02:10.472Z,19.16
2018-07-16T00:03:10.535Z,19.16
2018-07-16T00:04:10.594Z,19.28
2018-07-16T00:05:10.655Z,19.30
2018-07-16T00:06:10.718Z,19.27
2018-07-16T00:07:10.778Z,19.39
2018-07-16T00:08:10.839Z,19.28
2018-07-16T00:09:10.900Z,19.20
2018-07-16T00:10:10.961Z,19.16
2018-07-16T00:11:11.024Z,19.02
2018-07-16T00:12:11.083Z,19.06
2018-07-16T00:13:11.144Z,19.10
2018-07-16T00:14:11.208Z,19.09
2018-07-16T00:15:11.268Z,19.10
2018-07-16T00:16:11.329Z,18.99
2018-07-16T00:17:11.391Z,19.09
2018-07-16T00:18:11.451Z,19.12
2018-07-16T00:19:11.512Z,19.07
2018-07-16T00:20:11.572Z,19.16
2018-07-16T00:21:11.633Z,19.15
2018-07-16T00:22:11.695Z,19.13
2018-07-16T00:23:11.758Z,19.09
2018-07-16T00:24:11.821Z,18.93
2018-07-16T00:25:11.878Z,18.83
2018-07-16T00:26:11.940Z,18.91
2018-07-16T00:27:12.001Z,18.87
2018-07-16T00:28:12.063Z,18.82
2018-07-16T00:29:12.122Z,18.83
2018-07-16T00:30:12.184Z,18.83
2018-07-16T00:31:12.245Z,18.71
2018-07-16T00:32:12.306Z,18.86
2018-07-16T00:33:12.366Z,18.82
2018-07-16T00:34:12.427Z,18.78
2018-07-16T00:35:12.488Z,18.86
2018-07-16T00:36:12.551Z,18.86
2018-07-16T00:37:12.610Z,18.83
2018-07-16T00:38:12.672Z,18.90
2018-07-16T00:39:12.733Z,18.79
2018-07-16T00:40:12.794Z,18.68
2018-07-16T00:41:12.854Z,18.62
2018-07-16T00:42:12.915Z,18.59
2018-07-16T00:43:12.977Z,18.64
2018-07-16T00:44:13.085Z,18.64
2018-07-16T00:45:13.099Z,18.66
2018-07-16T00:46:13.160Z,18.69
2018-07-16T00:47:13.220Z,18.59
2018-07-16T00:48:13.282Z,18.46
2018-07-16T00:49:13.342Z,18.41
2018-07-16T00:50:13.402Z,18.41
2018-07-16T00:51:13.465Z,18.35
2018-07-16T00:52:13.525Z,18.31
2018-07-16T00:53:13.584Z,18.29
2018-07-16T00:54:13.645Z,18.34
2018-07-16T00:55:13.707Z,18.25
2018-07-16T00:56:13.767Z,18.35
2018-07-16T00:57:13.827Z,18.31
2018-07-16T00:58:13.888Z,18.32
2018-07-16T00:59:13.949Z,18.29
2018-07-16T01:00:14.012Z,18.21
2018-07-16T01:01:14.070Z,18.16
2018-07-16T01:02:14.130Z,18.21
2018-07-16T01:03:14.198Z,18.11
2018-07-16T01:04:14.254Z,18.05
2018-07-16T01:05:14.313Z,18.10
2018-07-16T01:06:14.374Z,17.94
2018-07-16T01:07:14.436Z,17.96
2018-07-16T01:08:14.496Z,18.17
2018-07-16T01:09:14.558Z,18.11
2018-07-16T01:10:14.618Z,18.19
2018-07-16T01:11:14.678Z,18.19
2018-07-16T01:12:14.739Z,18.19
2018-07-16T01:13:14.799Z,18.31
2018-07-16T01:14:14.861Z,18.32
2018-07-16T01:15:14.921Z,18.19
2018-07-16T01:16:14.985Z,18.17
2018-07-16T01:17:15.042Z,18.11
2018-07-16T01:18:15.103Z,18.10
2018-07-16T01:19:15.163Z,18.13
2018-07-16T01:20:15.224Z,17.95
2018-07-16T01:21:15.285Z,17.98
2018-07-16T01:22:15.344Z,17.79
2018-07-16T01:23:15.404Z,17.77
2018-07-16T01:24:15.472Z,17.80
2018-07-16T01:25:15.527Z,17.83
2018-07-16T01:26:15.587Z,17.87
2018-07-16T01:27:15.648Z,17.79
2018-07-16T01:28:15.714Z,17.81
2018-07-16T01:29:15.768Z,17.80
2018-07-16T01:30:15.828Z,17.79
2018-07-16T01:31:15.890Z,17.71
2018-07-16T01:32:15.950Z,17.71
2018-07-16T01:33:16.010Z,17.76
2018-07-16T01:34:16.071Z,17.73
2018-07-16T01:35:16.132Z,17.65
2018-07-16T01:36:16.193Z,17.77
2018-07-16T01:37:16.252Z,17.62
2018-07-16T01:38:16.316Z,17.79
2018-07-16T01:39:16.376Z,17.66
2018-07-16T01:40:16.434Z,17.58
2018-07-16T01:41:16.494Z,17.60
2018-07-16T01:42:16.555Z,17.65
2018-07-16T01:43:16.617Z,17.63
2018-07-16T01:44:16.676Z,17.57
2018-07-16T01:45:16.736Z,17.55
2018-07-16T01:46:16.796Z,17.57
2018-07-16T01:47:16.857Z,17.57
2018-07-16T01:48:16.918Z,17.55
2018-07-16T01:49:16.977Z,17.63
2018-07-16T01:50:17.040Z,17.63
2018-07-16T01:51:17.099Z,17.63
2018-07-16T01:52:17.160Z,17.63
2018-07-16T01:53:17.220Z,17.60
2018-07-16T01:54:17.281Z,17.62
2018-07-16T01:55:17.342Z,17.77
2018-07-16T01:56:17.401Z,17.62
2018-07-16T01:57:17.462Z,17.58
2018-07-16T01:58:17.522Z,17.66
2018-07-16T01:59:17.583Z,17.60
2018-07-16T02:00:17.643Z,17.65
2018-07-16T02:01:17.703Z,17.57
2018-07-16T02:02:17.763Z,17.62
2018-07-16T02:03:17.826Z,17.51
2018-07-16T02:04:17.886Z,17.60
2018-07-16T02:05:17.946Z,17.54
2018-07-16T02:06:18.007Z,17.47
2018-07-16T02:07:18.069Z,17.45
2018-07-16T02:08:18.130Z,17.51
2018-07-16T02:09:18.187Z,17.43
2018-07-16T02:10:18.248Z,17.51
2018-07-16T02:11:18.310Z,17.57
2018-07-16T02:12:18.369Z,17.60
2018-07-16T02:13:18.430Z,17.58
2018-07-16T02:14:18.489Z,17.63
2018-07-16T02:15:18.550Z,17.58
2018-07-16T02:16:18.615Z,17.57
2018-07-16T02:17:18.673Z,17.55
2018-07-16T02:18:18.732Z,17.46
2018-07-16T02:19:18.792Z,17.46
2018-07-16T02:20:18.852Z,17.51
2018-07-16T02:21:18.912Z,17.55
2018-07-16T02:22:18.973Z,17.46
2018-07-16T02:23:19.034Z,17.38
2018-07-16T02:24:19.093Z,17.42
2018-07-16T02:25:19.153Z,17.38
2018-07-16T02:26:19.214Z,17.38
2018-07-16T02:27:19.276Z,17.35
2018-07-16T02:28:19.337Z,17.33
2018-07-16T02:29:19.394Z,17.35
2018-07-16T02:30:19.456Z,17.33
2018-07-16T02:31:19.516Z,17.42
2018-07-16T02:32:19.577Z,17.42
2018-07-16T02:33:19.636Z,17.33
2018-07-16T02:34:19.697Z,17.27
2018-07-16T02:35:19.760Z,17.20
2018-07-16T02:36:19.827Z,17.22
2018-07-16T02:37:19.883Z,17.28
2018-07-16T02:38:19.938Z,17.38
2018-07-16T02:39:19.998Z,17.30
2018-07-16T02:40:20.059Z,17.20
2018-07-16T02:41:20.118Z,17.24
2018-07-16T02:42:20.178Z,17.22
2018-07-16T02:43:20.241Z,17.32
2018-07-16T02:44:20.300Z,17.17
2018-07-16T02:45:20.359Z,17.09
2018-07-16T02:46:20.421Z,17.02
2018-07-16T02:47:20.482Z,17.06
2018-07-16T02:48:20.540Z,17.09
2018-07-16T02:49:20.600Z,17.15
2018-07-16T02:50:20.660Z,17.22
2018-07-16T02:51:20.721Z,17.18
2018-07-16T02:52:20.782Z,17.14
2018-07-16T02:53:20.841Z,17.15
2018-07-16T02:54:20.904Z,17.07
2018-07-16T02:55:20.962Z,16.99
2018-07-16T02:56:21.056Z,17.00
2018-07-16T02:57:21.086Z,16.99
2018-07-16T02:58:21.150Z,16.91
2018-07-16T02:59:21.202Z,17.05
2018-07-16T03:00:21.263Z,17.00
2018-07-16T03:01:21.322Z,16.91
2018-07-16T03:02:21.383Z,16.95
2018-07-16T03:03:21.443Z,16.98
2018-07-16T03:04:21.506Z,16.88
2018-07-16T03:05:21.563Z,16.75
2018-07-16T03:06:21.624Z,16.82
2018-07-16T03:07:21.691Z,16.81
2018-07-16T03:08:21.746Z,16.67
2018-07-16T03:09:21.803Z,16.81
2018-07-16T03:10:21.863Z,16.87
2018-07-16T03:11:21.924Z,16.95
2018-07-16T03:12:21.989Z,16.92
2018-07-16T03:13:22.044Z,16.99
2018-07-16T03:14:22.104Z,16.98
2018-07-16T03:15:22.164Z,16.90
2018-07-16T03:16:22.224Z,16.84
2018-07-16T03:17:22.284Z,16.84
2018-07-16T03:18:22.345Z,16.82
2018-07-16T03:19:22.405Z,16.67
2018-07-16T03:20:22.465Z,16.69
2018-07-16T03:21:22.526Z,16.55
2018-07-16T03:22:22.586Z,16.62
2018-07-16T03:23:22.662Z,16.62
2018-07-16T03:24:22.705Z,16.63
2018-07-16T03:25:22.765Z,16.52
2018-07-16T03:26:22.825Z,16.47
2018-07-16T03:27:22.885Z,16.54
2018-07-16T03:28:22.945Z,16.67
2018-07-16T03:29:23.004Z,16.67
2018-07-16T03:30:23.065Z,16.70
2018-07-16T03:31:23.124Z,16.66
2018-07-16T03:32:23.185Z,16.57
2018-07-16T03:33:23.244Z,16.48
2018-07-16T03:34:23.305Z,16.48
2018-07-16T03:35:23.364Z,16.41
2018-07-16T03:36:23.424Z,16.42
2018-07-16T03:37:23.483Z,16.48
2018-07-16T03:38:23.543Z,16.50
2018-07-16T03:39:23.604Z,16.40
2018-07-16T03:40:23.673Z,16.34
2018-07-16T03:41:23.721Z,16.48
2018-07-16T03:42:23.783Z,16.36
2018-07-16T03:43:23.843Z,16.33
2018-07-16T03:44:24.154Z,16.37
2018-07-16T03:45:23.963Z,16.48
2018-07-16T03:46:24.023Z,16.37
2018-07-16T03:47:24.083Z,16.26
2018-07-16T03:48:24.143Z,16.34
2018-07-16T03:49:24.202Z,16.27
2018-07-16T03:50:24.263Z,16.26
2018-07-16T03:51:24.322Z,16.23
2018-07-16T03:57:18.718Z,16.23
2018-07-16T03:58:18.776Z,16.30
2018-07-16T03:59:18.837Z,16.34
2018-07-16T04:00:18.900Z,16.30
2018-07-16T04:06:03.262Z,16.36
2018-07-16T04:07:03.322Z,16.34
2018-07-16T04:08:03.383Z,16.26
2018-07-16T04:09:03.443Z,16.22
2018-07-16T04:10:03.502Z,16.22
2018-07-16T04:11:03.562Z,16.22
2018-07-16T04:12:03.623Z,16.18
2018-07-16T04:13:03.682Z,16.26
2018-07-16T04:14:03.740Z,16.18
2018-07-16T04:15:03.800Z,16.14
2018-07-16T04:16:03.860Z,16.18
2018-07-16T04:17:03.921Z,16.29
2018-07-16T04:18:03.979Z,16.26
2018-07-16T04:19:04.040Z,16.23
2018-07-16T04:20:04.099Z,16.30
2018-07-16T04:21:04.159Z,16.32
2018-07-16T04:22:04.218Z,16.34
2018-07-16T04:23:04.277Z,16.26
2018-07-16T04:24:04.338Z,16.27
2018-07-16T04:25:04.399Z,16.26
2018-07-16T04:26:04.457Z,16.30
2018-07-16T04:27:04.517Z,16.25
2018-07-16T04:28:04.576Z,16.16
2018-07-16T04:29:04.638Z,16.23
2018-07-16T04:30:05.074Z,16.26
2018-07-16T04:31:04.888Z,16.26
2018-07-16T04:32:04.818Z,16.25
2018-07-16T04:33:04.876Z,16.26
2018-07-16T04:34:04.935Z,16.25
2018-07-16T04:35:04.995Z,16.22
2018-07-16T04:36:05.055Z,16.25
2018-07-16T04:37:05.116Z,16.27
2018-07-16T04:38:05.176Z,16.26
2018-07-16T04:39:05.235Z,16.36
2018-07-16T04:40:05.295Z,16.34
2018-07-16T04:41:05.354Z,16.33
2018-07-16T04:42:05.415Z,16.40
2018-07-16T04:43:05.473Z,16.36
2018-07-16T04:44:05.533Z,16.27
2018-07-16T04:45:05.593Z,16.30
2018-07-16T04:46:05.652Z,16.34
2018-07-16T04:47:05.714Z,16.44
2018-07-16T04:48:05.772Z,16.47
2018-07-16T04:49:05.832Z,16.45
2018-07-16T04:50:05.895Z,16.36
2018-07-16T04:51:05.951Z,16.50
2018-07-16T04:52:06.011Z,16.47
2018-07-16T04:53:06.071Z,16.42
2018-07-16T04:54:06.162Z,16.48
2018-07-16T04:55:06.190Z,16.44
2018-07-16T04:56:06.266Z,16.44
2018-07-16T04:57:06.350Z,16.52
2018-07-16T04:58:06.372Z,16.51
2018-07-16T04:59:06.430Z,16.48
2018-07-16T05:00:06.490Z,16.50
2018-07-16T05:01:06.568Z,16.51
2018-07-16T05:02:06.609Z,16.59
2018-07-16T05:03:06.689Z,16.48
2018-07-16T05:04:06.729Z,16.59
2018-07-16T05:05:06.790Z,16.48
2018-07-16T05:06:06.848Z,16.62
2018-07-16T05:07:06.909Z,16.62
2018-07-16T05:08:06.969Z,16.57
2018-07-16T05:09:07.029Z,16.52
2018-07-16T05:10:07.089Z,16.52
2018-07-16T05:11:07.148Z,16.57
2018-07-16T05:12:07.209Z,16.67
2018-07-16T05:13:07.269Z,16.69
2018-07-16T05:14:07.329Z,16.66
2018-07-16T05:15:07.389Z,16.73
2018-07-16T05:16:07.449Z,16.78
2018-07-16T05:17:07.510Z,16.81
2018-07-16T05:18:07.656Z,16.84
2018-07-16T05:19:07.629Z,16.84
2018-07-16T05:20:07.691Z,16.90
2018-07-16T05:21:07.751Z,16.90
2018-07-16T05:22:07.810Z,16.96
2018-07-16T05:23:07.869Z,16.96
2018-07-16T05:24:08.038Z,17.00
2018-07-16T05:25:08.241Z,17.05
2018-07-16T05:26:08.050Z,17.12
2018-07-16T05:27:08.111Z,17.06
2018-07-16T05:28:08.171Z,17.03
2018-07-16T05:29:08.230Z,17.14
2018-07-16T05:30:08.545Z,17.10
2018-07-16T05:31:08.355Z,17.18
2018-07-16T05:32:08.455Z,17.24
2018-07-16T05:33:08.482Z,17.28
2018-07-16T05:34:08.532Z,17.36
2018-07-16T05:35:08.592Z,17.25
2018-07-16T05:36:08.653Z,17.39
2018-07-16T05:37:08.715Z,17.32
2018-07-16T05:38:08.846Z,17.38
2018-07-16T05:39:08.835Z,17.40
2018-07-16T05:40:08.895Z,17.38
2018-07-16T05:41:08.959Z,17.49
2018-07-16T05:42:09.016Z,17.53
2018-07-16T05:43:09.077Z,17.57
2018-07-16T05:44:09.136Z,17.60
2018-07-16T05:45:09.348Z,17.57
2018-07-16T05:46:09.257Z,17.63
2018-07-16T05:47:09.318Z,17.57
2018-07-16T05:48:09.380Z,17.79
2018-07-16T05:49:09.442Z,17.76
2018-07-16T05:50:09.750Z,17.84
2018-07-16T05:51:09.561Z,17.86
2018-07-16T05:52:09.623Z,17.95
2018-07-16T05:53:09.683Z,17.96
2018-07-16T05:54:09.742Z,17.99
2018-07-16T05:55:09.802Z,17.95
2018-07-16T05:56:09.863Z,18.09
2018-07-16T05:57:09.925Z,18.13
2018-07-16T05:58:09.994Z,18.19
2018-07-16T05:59:13.627Z,18.21
2018-07-16T06:00:10.107Z,18.28
2018-07-16T06:01:10.168Z,18.29
2018-07-16T06:02:10.228Z,18.32
2018-07-16T06:03:10.290Z,18.34
2018-07-16T06:04:10.350Z,18.34
2018-07-16T06:05:10.411Z,18.34
2018-07-16T06:06:10.471Z,18.32
2018-07-16T06:07:10.532Z,18.50
2018-07-16T06:09:43.180Z,18.60
2018-07-16T06:10:43.241Z,18.69
2018-07-16T06:11:43.625Z,18.76
2018-07-16T06:12:43.363Z,18.75
2018-07-16T06:13:43.424Z,18.74
2018-07-16T06:14:43.486Z,18.76
2018-07-16T06:16:51.145Z,18.84
2018-07-16T06:17:51.124Z,18.74
2018-07-16T06:18:51.182Z,18.79
2018-07-16T06:19:51.244Z,18.83
2018-07-16T06:20:51.304Z,18.84
2018-07-16T06:21:51.366Z,18.86
2018-07-16T06:22:51.428Z,18.94
2018-07-16T06:23:54.185Z,19.06
2018-07-16T06:24:54.983Z,19.13
2018-07-16T06:25:51.611Z,19.16
2018-07-16T06:26:51.673Z,19.13
2018-07-16T06:27:51.737Z,19.20
2018-07-16T06:28:51.795Z,19.21
2018-07-16T06:29:51.857Z,19.30
2018-07-16T06:30:51.919Z,19.34
2018-07-16T06:31:51.982Z,19.39
2018-07-16T06:32:52.042Z,19.49
2018-07-16T06:33:52.103Z,19.52
2018-07-16T06:34:52.165Z,19.53
2018-07-16T06:35:52.227Z,19.50
2018-07-16T06:36:52.290Z,19.65
2018-07-16T06:37:52.350Z,19.65
2018-07-16T06:38:52.416Z,19.70
2018-07-16T06:39:52.520Z,19.80
2018-07-16T06:40:52.707Z,19.92
2018-07-16T06:41:52.601Z,19.85
2018-07-16T06:42:52.659Z,20.00
2018-07-16T06:43:52.722Z,20.01
2018-07-16T06:44:52.783Z,20.10
2018-07-16T06:45:52.845Z,20.19
2018-07-16T06:46:52.964Z,20.08
2018-07-16T06:47:53.129Z,20.22
2018-07-16T06:48:53.032Z,20.23
2018-07-16T06:49:53.093Z,20.37
2018-07-16T06:50:53.158Z,20.34
2018-07-16T06:51:53.219Z,20.37
2018-07-16T06:52:53.280Z,20.41
2018-07-16T06:53:53.341Z,20.50
2018-07-16T06:54:53.405Z,20.40
2018-07-16T06:55:53.468Z,20.56
2018-07-16T06:56:53.534Z,20.50
2018-07-16T06:57:53.592Z,20.60
2018-07-16T06:58:53.659Z,20.58
2018-07-16T06:59:53.718Z,20.60
2018-07-16T07:00:53.780Z,20.60
2018-07-16T07:01:53.842Z,20.63
2018-07-16T07:02:53.905Z,20.72
2018-07-16T07:03:53.968Z,20.72
2018-07-16T07:04:54.030Z,20.78
2018-07-16T07:05:54.092Z,20.76
2018-07-16T07:06:54.157Z,20.79
2018-07-16T07:07:54.218Z,20.87
2018-07-16T07:08:54.280Z,20.88
2018-07-16T07:09:54.351Z,21.00
2018-07-16T07:10:54.406Z,21.00
2018-07-16T07:11:54.468Z,21.11
2018-07-16T07:12:54.530Z,21.03
2018-07-16T07:13:54.595Z,21.15
2018-07-16T07:14:54.656Z,21.16
2018-07-16T07:15:54.719Z,21.18
2018-07-16T07:16:54.781Z,21.26
2018-07-16T07:17:54.843Z,21.26
2018-07-16T07:18:54.907Z,21.34
2018-07-16T07:19:54.970Z,21.40
2018-07-16T07:20:55.031Z,21.51
2018-07-16T07:21:55.095Z,21.52
2018-07-16T07:22:55.157Z,21.68
2018-07-16T07:23:55.635Z,21.67
2018-07-16T07:24:55.283Z,21.66
2018-07-16T07:25:55.345Z,21.79
2018-07-16T07:26:55.413Z,21.82
2018-07-16T07:27:55.481Z,21.83
2018-07-16T07:28:55.535Z,21.74
2018-07-16T07:29:55.598Z,21.98
2018-07-16T07:30:55.662Z,21.94
2018-07-16T07:31:55.725Z,21.99
2018-07-16T07:32:55.788Z,22.04
2018-07-16T07:33:55.854Z,22.04
2018-07-16T07:34:55.925Z,22.12
2018-07-16T07:35:56.038Z,22.12
2018-07-16T07:36:56.041Z,22.17
2018-07-16T07:37:56.103Z,22.23
2018-07-16T07:38:56.169Z,22.29
2018-07-16T07:39:56.232Z,22.35
2018-07-16T07:40:56.295Z,22.48
2018-07-16T07:41:56.357Z,22.45
2018-07-16T07:42:56.421Z,22.59
2018-07-16T07:43:56.509Z,22.60
2018-07-16T07:44:56.546Z,22.78
2018-07-16T07:45:56.610Z,22.81
2018-07-16T07:46:56.675Z,22.86
2018-07-16T07:47:56.741Z,22.94
2018-07-16T07:48:56.801Z,23.04
2018-07-16T07:49:56.865Z,23.23
2018-07-16T07:50:56.929Z,23.12
2018-07-16T07:51:56.992Z,23.16
2018-07-16T07:52:57.056Z,23.29
2018-07-16T07:53:57.121Z,23.25
2018-07-16T07:54:57.620Z,23.25
2018-07-16T07:55:57.248Z,23.41
2018-07-16T07:56:57.309Z,23.52
2018-07-16T07:57:57.374Z,23.44
2018-07-16T07:58:57.439Z,23.54
2018-07-16T07:59:57.504Z,23.57
2018-07-16T08:00:57.566Z,23.69
2018-07-16T08:01:57.728Z,23.77
2018-07-16T08:02:57.693Z,23.86
2018-07-16T08:03:57.757Z,23.94
2018-07-16T08:04:57.824Z,24.00
2018-07-16T08:05:57.885Z,24.08
2018-07-16T08:06:57.962Z,24.05
2018-07-16T08:07:58.014Z,24.26
2018-07-16T08:08:58.077Z,24.42
2018-07-16T08:09:58.141Z,24.45
2018-07-16T08:10:58.205Z,24.45
2018-07-16T08:11:58.270Z,24.48
2018-07-16T08:12:58.335Z,24.61
2018-07-16T08:13:58.399Z,24.63
2018-07-16T08:14:58.462Z,24.74
2018-07-16T08:15:58.528Z,24.79
2018-07-16T08:16:58.590Z,24.75
2018-07-16T08:17:58.655Z,24.86
2018-07-16T08:18:58.720Z,24.98
2018-07-16T08:19:58.784Z,24.92
2018-07-16T08:20:59.056Z,25.07
2018-07-16T08:21:58.912Z,25.14
2018-07-16T08:22:58.979Z,25.17
2018-07-16T08:23:59.043Z,25.23
2018-07-16T08:24:59.105Z,25.27
2018-07-16T08:25:59.176Z,25.29
2018-07-16T08:26:59.238Z,25.39
2018-07-16T08:27:59.659Z,25.36
2018-07-16T08:28:59.364Z,25.45
2018-07-16T08:29:59.429Z,25.27
2018-07-16T08:30:59.495Z,25.19
2018-07-16T08:31:59.562Z,25.12
2018-07-16T08:32:59.623Z,25.19
2018-07-16T08:34:00.378Z,25.14
2018-07-16T08:34:59.753Z,25.17
2018-07-16T08:35:59.820Z,25.12
2018-07-16T08:36:59.884Z,25.20
2018-07-16T08:37:59.947Z,25.24
2018-07-16T08:39:00.060Z,25.34
2018-07-16T08:40:00.081Z,25.35
2018-07-16T08:41:00.142Z,25.31
2018-07-16T08:42:00.208Z,25.38
2018-07-16T08:43:00.273Z,25.38
2018-07-16T08:44:00.338Z,25.38
2018-07-16T08:45:00.403Z,25.27
2018-07-16T08:46:00.467Z,25.38
2018-07-16T08:47:00.586Z,25.44
2018-07-16T08:48:00.607Z,25.53
2018-07-16T08:49:00.662Z,25.67
2018-07-16T08:50:00.728Z,25.76
2018-07-16T08:51:00.793Z,25.74
2018-07-16T08:52:00.874Z,25.83
2018-07-16T08:53:00.924Z,25.85
2018-07-16T08:54:00.995Z,25.97
2018-07-16T08:55:01.066Z,26.12
2018-07-16T08:56:01.134Z,26.11
2018-07-16T08:57:01.203Z,26.08
2018-07-16T08:58:01.269Z,26.13
2018-07-16T08:59:01.315Z,26.19
2018-07-16T09:00:01.386Z,26.24
2018-07-16T09:01:01.449Z,26.32
2018-07-16T09:02:01.511Z,26.41
2018-07-16T09:03:01.577Z,26.53
2018-07-16T09:04:01.724Z,26.54
2018-07-16T09:05:01.708Z,26.57
2018-07-16T09:06:01.777Z,26.68
2018-07-16T09:07:01.867Z,26.86
2018-07-16T09:08:01.906Z,26.90
2018-07-16T09:09:01.970Z,26.90
2018-07-16T09:10:02.038Z,26.94
2018-07-16T09:11:02.180Z,26.91
2018-07-16T09:12:02.169Z,27.05
2018-07-16T09:13:02.832Z,26.94
2018-07-16T09:14:02.303Z,27.01
2018-07-16T09:15:02.369Z,27.02
2018-07-16T09:16:02.432Z,26.96
2018-07-16T09:17:02.498Z,27.03
2018-07-16T09:18:02.565Z,27.15
2018-07-16T09:19:02.642Z,27.23
2018-07-16T09:20:02.696Z,27.25
2018-07-16T09:21:02.761Z,27.40
2018-07-16T09:22:02.827Z,27.33
2018-07-16T09:23:02.894Z,27.48
2018-07-16T09:24:02.962Z,27.58
2018-07-16T09:25:03.031Z,27.71
2018-07-16T09:26:03.093Z,27.78
2018-07-16T09:27:03.159Z,27.88
2018-07-16T09:28:03.226Z,27.78
2018-07-16T09:29:03.292Z,27.86
2018-07-16T09:30:03.360Z,27.88
2018-07-16T09:31:03.425Z,27.86
2018-07-16T09:32:03.494Z,27.93
2018-07-16T09:33:03.558Z,28.03
2018-07-16T09:34:03.624Z,28.13
2018-07-16T09:35:03.693Z,28.18
2018-07-16T09:36:03.758Z,28.17
2018-07-16T09:37:03.823Z,28.28
2018-07-16T09:38:03.890Z,28.38
2018-07-16T09:39:04.023Z,28.51
2018-07-16T09:40:04.024Z,28.60
2018-07-16T09:41:04.346Z,28.52
2018-07-16T09:42:04.157Z,28.58
2018-07-16T09:43:04.340Z,28.65
2018-07-16T09:44:04.292Z,28.64
2018-07-16T09:45:04.358Z,28.79
2018-07-16T09:46:04.426Z,28.89
2018-07-16T09:47:04.491Z,29.00
2018-07-16T09:48:04.559Z,29.10
2018-07-16T09:49:04.624Z,29.10
2018-07-16T09:50:04.692Z,28.94
2018-07-16T09:51:04.758Z,28.95
2018-07-16T09:52:04.826Z,28.87
2018-07-16T09:53:04.893Z,28.88
2018-07-16T09:54:04.958Z,28.80
2018-07-16T09:55:05.027Z,28.91
2018-07-16T09:56:05.110Z,28.77
2018-07-16T09:57:05.160Z,28.76
2018-07-16T09:58:05.227Z,28.95
2018-07-16T09:59:05.295Z,29.12
2018-07-16T10:00:05.371Z,29.29
2018-07-16T10:01:05.428Z,29.20
2018-07-16T10:02:05.496Z,29.27
2018-07-16T10:03:05.564Z,29.36
2018-07-16T10:04:05.631Z,29.35
2018-07-16T10:05:05.698Z,29.23
2018-07-16T10:06:05.765Z,29.41
2018-07-16T10:07:05.833Z,29.41
2018-07-16T10:08:05.901Z,29.48
2018-07-16T10:09:05.970Z,29.63
2018-07-16T10:10:06.036Z,29.73
2018-07-16T10:11:06.103Z,29.64
2018-07-16T10:12:06.172Z,29.69
2018-07-16T10:13:06.239Z,29.95
2018-07-16T10:14:06.307Z,30.01
2018-07-16T10:15:06.378Z,30.23
2018-07-16T10:16:06.447Z,30.46
2018-07-16T10:17:06.515Z,30.54
2018-07-16T10:18:06.585Z,30.53
2018-07-16T10:19:06.655Z,30.53
2018-07-16T10:20:06.734Z,30.60
2018-07-16T10:21:06.797Z,30.60
2018-07-16T10:22:06.866Z,30.67
2018-07-16T10:23:06.937Z,30.40
2018-07-16T10:24:07.011Z,30.79
2018-07-16T10:25:07.080Z,31.03
2018-07-16T10:26:07.152Z,31.19
2018-07-16T10:27:07.224Z,31.25
2018-07-16T10:28:07.296Z,31.50
2018-07-16T10:29:08.139Z,31.72
2018-07-16T10:30:07.442Z,32.21
2018-07-16T10:31:07.515Z,32.34
2018-07-16T10:32:07.590Z,32.61
2018-07-16T10:33:07.661Z,32.81
2018-07-16T10:34:07.735Z,32.91
2018-07-16T10:35:07.810Z,33.34
2018-07-16T10:36:07.885Z,33.75
2018-07-16T10:37:07.959Z,33.79
2018-07-16T10:38:08.035Z,33.78
2018-07-16T10:39:08.115Z,32.77
2018-07-16T10:40:08.185Z,32.77
2018-07-16T10:41:08.257Z,32.10
2018-07-16T10:42:08.337Z,31.50
2018-07-16T10:43:08.415Z,31.15
2018-07-16T10:44:08.487Z,31.03
2018-07-16T10:45:08.560Z,30.88
2018-07-16T10:46:08.636Z,31.30
2018-07-16T10:47:08.709Z,31.19
2018-07-16T10:48:08.785Z,31.85
2018-07-16T10:49:08.858Z,31.32
2018-07-16T10:50:08.932Z,31.15
2018-07-16T10:51:09.007Z,31.09
2018-07-16T10:52:09.081Z,31.09
2018-07-16T10:53:09.154Z,30.98
2018-07-16T10:54:09.232Z,30.88
2018-07-16T10:55:09.313Z,30.68
2018-07-16T10:56:09.373Z,30.08
2018-07-16T10:57:09.443Z,29.57
2018-07-16T10:58:09.515Z,29.42
2018-07-16T10:59:09.588Z,29.26
2018-07-16T11:00:09.660Z,29.44
2018-07-16T11:01:09.730Z,29.55
2018-07-16T11:02:09.802Z,29.63
2018-07-16T11:03:09.926Z,29.49
2018-07-16T11:04:09.945Z,29.21
2018-07-16T11:05:10.015Z,28.17
2018-07-16T11:06:10.403Z,27.59
2018-07-16T11:07:10.156Z,27.13
2018-07-16T11:08:10.225Z,26.59
2018-07-16T11:09:10.296Z,26.36
2018-07-16T11:10:10.367Z,26.01
2018-07-16T11:11:10.437Z,26.04
2018-07-16T11:12:10.504Z,25.89
2018-07-16T11:13:10.573Z,25.83
2018-07-16T11:14:10.645Z,25.79
2018-07-16T11:15:10.715Z,25.74
2018-07-16T11:16:10.788Z,25.78
2018-07-16T11:17:10.847Z,25.85
2018-07-16T11:18:10.916Z,25.89
2018-07-16T11:19:10.985Z,25.67
2018-07-16T11:20:11.051Z,25.61
2018-07-16T11:21:11.119Z,25.41
2018-07-16T11:22:11.188Z,25.41
2018-07-16T11:23:11.253Z,25.27
2018-07-16T11:24:11.323Z,25.22
2018-07-16T11:25:11.387Z,25.12
2018-07-16T11:26:11.458Z,24.94
2018-07-16T11:27:11.523Z,24.82
2018-07-16T11:28:11.589Z,24.71
2018-07-16T11:29:11.656Z,24.87
2018-07-16T11:30:11.721Z,24.80
2018-07-16T11:31:11.788Z,24.89
2018-07-16T11:32:11.855Z,25.09
2018-07-16T11:33:11.921Z,25.42
2018-07-16T11:34:11.988Z,26.08
2018-07-16T11:35:12.057Z,26.11
2018-07-16T11:36:12.121Z,25.85
2018-07-16T11:37:12.188Z,25.69
2018-07-16T11:38:12.255Z,25.29
2018-07-16T11:39:12.322Z,24.90
2018-07-16T11:40:12.394Z,25.09
2018-07-16T11:41:12.455Z,25.39
2018-07-16T11:42:12.522Z,25.23
2018-07-16T11:43:12.591Z,25.44
2018-07-16T11:44:12.657Z,25.45
2018-07-16T11:45:12.724Z,25.64
2018-07-16T11:46:12.857Z,26.13
2018-07-16T11:47:12.860Z,25.59
2018-07-16T11:48:12.928Z,25.76
2018-07-16T11:49:12.995Z,25.54
2018-07-16T11:50:13.066Z,26.01
2018-07-16T11:51:13.132Z,26.54
2018-07-16T11:52:13.268Z,26.69
2018-07-16T11:53:13.270Z,27.25
2018-07-16T11:54:13.339Z,27.77
2018-07-16T11:55:13.409Z,27.80
2018-07-16T11:56:13.478Z,28.23
2018-07-16T11:57:13.547Z,28.15
2018-07-16T11:58:13.620Z,28.43
2018-07-16T11:59:13.754Z,28.80
2018-07-16T12:00:13.759Z,28.91
2018-07-16T12:01:13.830Z,29.00
2018-07-16T12:02:13.902Z,29.39
2018-07-16T12:03:13.973Z,29.15
2018-07-16T12:04:14.045Z,29.42
2018-07-16T12:05:14.132Z,29.66
2018-07-16T12:06:14.189Z,29.42
2018-07-16T12:07:14.263Z,29.35
2018-07-16T12:08:14.335Z,29.84
2018-07-16T12:09:14.407Z,30.26
2018-07-16T12:10:14.481Z,31.34
2018-07-16T12:11:14.554Z,31.27
2018-07-16T12:12:14.641Z,30.91
2018-07-16T12:13:14.700Z,30.37
2018-07-16T12:14:14.773Z,31.16
2018-07-16T12:15:14.848Z,31.76
2018-07-16T12:16:14.922Z,31.99
2018-07-16T12:17:14.995Z,32.50
2018-07-16T12:18:15.072Z,33.15
2018-07-16T12:19:15.144Z,33.82
2018-07-16T12:20:15.220Z,33.81
2018-07-16T12:21:15.294Z,34.12
2018-07-16T12:22:15.369Z,34.03
2018-07-16T12:23:15.445Z,34.58
2018-07-16T12:24:15.520Z,34.81
2018-07-16T12:25:15.596Z,34.56
2018-07-16T12:26:15.669Z,33.87
2018-07-16T12:27:15.746Z,33.34
2018-07-16T12:28:15.821Z,32.34
2018-07-16T12:29:15.894Z,32.34
2018-07-16T12:30:15.972Z,32.39
2018-07-16T12:31:16.048Z,32.88
2018-07-16T12:32:16.125Z,33.74
2018-07-16T12:33:16.199Z,34.69
2018-07-16T12:34:16.280Z,35.10
2018-07-16T12:35:16.352Z,35.32
2018-07-16T12:36:16.429Z,35.68
2018-07-16T12:37:16.504Z,35.61
2018-07-16T12:38:16.582Z,36.18
2018-07-16T12:39:16.659Z,36.19
2018-07-16T12:40:16.734Z,36.59
2018-07-16T12:41:16.838Z,36.00
2018-07-16T12:42:16.889Z,35.73
2018-07-16T12:43:16.964Z,36.48
2018-07-16T12:44:17.042Z,36.41
2018-07-16T12:45:17.119Z,36.48
2018-07-16T12:46:17.196Z,36.49
2018-07-16T12:47:17.275Z,36.64
2018-07-16T12:48:17.424Z,36.69
2018-07-16T12:49:17.428Z,35.58
2018-07-16T12:50:17.505Z,34.94
2018-07-16T12:51:17.582Z,34.55
2018-07-16T12:52:17.663Z,34.31
2018-07-16T12:53:17.738Z,34.50
2018-07-16T12:54:17.815Z,34.56
2018-07-16T12:55:17.892Z,34.18
2018-07-16T12:56:17.971Z,33.28
2018-07-16T12:57:18.119Z,33.79
2018-07-16T12:58:18.125Z,34.49
2018-07-16T12:59:18.203Z,34.52
2018-07-16T13:00:18.282Z,34.05
2018-07-16T13:01:18.357Z,34.40
2018-07-16T13:02:18.437Z,35.13
2018-07-16T13:03:18.513Z,35.24
2018-07-16T13:04:18.590Z,34.16
2018-07-16T13:05:18.666Z,34.75